Isuzu — 3FSN6 — position and weather

sailwx.info

Track history (hours):
 
Tides and Currents Weather Stations Pressure Air Temp Water Temp Dewpoint Dewpoint Depression Visibility Wind Speed Wind Dir Waves Ship Positions

Isuzu

Last reported at 2018-Feb-22 00:00 UTC. Time now 2018-Feb-22 05:20 UTC.
Position N 34°28' E 139°46'.

Length 145 m; draft 6.7 m.

Type: Cargo ship. MMSI: 371884000.

Date/timePositionNaut miles runAvg speedWind from/ knotsBaromVisibWave heightAir tempDewpointWater temp
2018-Feb-22 00:00N 34°28' E 139°46'2 2.4
2018-Feb-21 23:12N 34°29' E 139°47'1 2.7
2018-Feb-21 23:00N 34°30' E 139°48'2 2.2
2018-Feb-21 21:54N 34°31' E 139°50'1 2.1
2018-Feb-21 21:24N 34°32' E 139°51'0 0.7
2018-Feb-21 20:54N 34°32' E 139°52'1 0.3
2018-Feb-21 17:30N 34°32' E 139°50'0 0.7
2018-Feb-21 16:57N 34°32' E 139°50'3 0.6
2018-Feb-21 12:39N 34°30' E 139°52'0 0.8
2018-Feb-21 12:30N 34°30' E 139°52'2 0.8
2018-Feb-21 10:14N 34°28' E 139°52'1410.3
2018-Feb-21 08:53N 34°25' E 139°35'0 0.2
2018-Feb-21 07:05N 34°24' E 139°35'0 1.2
2018-Feb-21 06:53N 34°24' E 139°36'3 1.0
2018-Feb-21 04:01N 34°25' E 139°39'3 5.3
2018-Feb-21 03:32N 34°24' E 139°37'1 9.3
2018-Feb-21 03:28N 34°23' E 139°36'510.2
2018-Feb-21 02:59N 34°20' E 139°32'  
2018-Feb-17 05:22N 37°40' E 122°10'513.4
2018-Feb-17 05:00N 37°41' E 122°05'713.3
2018-Feb-17 04:30N 37°43' E 121°56'713.1
2018-Feb-17 04:00N 37°44' E 121°48'612.8
2018-Feb-17 03:30N 37°43' E 121°40'611.3
2018-Feb-17 03:00N 37°39' E 121°35'611.2
2018-Feb-17 02:30N 37°37' E 121°28'4 8.3
2018-Feb-17 02:00N 37°35' E 121°24'0 0.8
2018-Feb-17 01:30N 37°35' E 121°23'0 0.0
2018-Feb-17 01:00N 37°35' E 121°23'0 0.0
2018-Feb-17 00:30N 37°35' E 121°23'0 0.0
2018-Feb-17 00:00N 37°35' E 121°23'0 0.0
2018-Feb-16 23:30N 37°35' E 121°23'0 0.0
2018-Feb-16 23:00N 37°35' E 121°23'0 0.0
2018-Feb-16 22:30N 37°35' E 121°23'0 0.0
2018-Feb-16 22:00N 37°35' E 121°23'0 0.0
2018-Feb-16 21:30N 37°35' E 121°23'0 0.0
2018-Feb-16 21:00N 37°35' E 121°23'0 0.0
2018-Feb-16 20:27N 37°35' E 121°23'0 0.0
2018-Feb-16 20:00N 37°35' E 121°23'0 0.0
2018-Feb-16 19:30N 37°35' E 121°23'0 0.0
2018-Feb-16 18:57N 37°35' E 121°23'0 0.0
2018-Feb-16 18:30N 37°35' E 121°23'0 0.0
2018-Feb-16 18:00N 37°35' E 121°23'0 0.0
2018-Feb-16 17:30N 37°35' E 121°23'0 0.0
2018-Feb-16 16:57N 37°35' E 121°23'0 0.0
2018-Feb-16 16:21N 37°35' E 121°23'0 0.0
2018-Feb-16 15:57N 37°35' E 121°23'0 0.0
2018-Feb-16 15:30N 37°35' E 121°23'0 0.0
2018-Feb-16 15:00N 37°35' E 121°23'0 0.0
2018-Feb-16 14:30N 37°35' E 121°23'0 0.0
2018-Feb-16 14:00N 37°35' E 121°23'0 0.0
2018-Feb-16 13:30N 37°35' E 121°23'0 0.0
2018-Feb-16 13:00N 37°35' E 121°23'0 0.1
2018-Feb-16 12:30N 37°35' E 121°23'0 0.1
2018-Feb-16 12:00N 37°35' E 121°23'0 0.0
2018-Feb-16 11:30N 37°35' E 121°23'0 0.0
2018-Feb-16 11:00N 37°35' E 121°23'0 0.0
2018-Feb-16 10:27N 37°35' E 121°23'0 0.0
2018-Feb-16 09:57N 37°35' E 121°23'0 0.1
2018-Feb-16 09:27N 37°35' E 121°23'0 0.1
2018-Feb-16 09:00N 37°35' E 121°23'0 0.0
2018-Feb-16 08:27N 37°35' E 121°23'0 0.0
2018-Feb-16 08:00N 37°35' E 121°23'0 0.0
2018-Feb-16 07:27N 37°35' E 121°23'0 0.0
2018-Feb-16 07:00N 37°35' E 121°23'0 0.0
2018-Feb-16 06:30N 37°35' E 121°23'0 0.0
2018-Feb-16 06:00N 37°35' E 121°23'0 0.0
2018-Feb-16 05:30N 37°35' E 121°23'0 0.0
2018-Feb-16 04:54N 37°35' E 121°23'0 0.0
2018-Feb-16 04:30N 37°35' E 121°23'0 0.0
2018-Feb-16 03:57N 37°35' E 121°23'0 0.0
2018-Feb-16 03:27N 37°35' E 121°23'0 0.0
2018-Feb-16 02:57N 37°35' E 121°23'0 0.0
2018-Feb-16 02:30N 37°35' E 121°23'0 0.0
2018-Feb-16 02:00N 37°35' E 121°23'0 0.0
2018-Feb-16 01:27N 37°35' E 121°23'0 0.0
2018-Feb-16 01:00N 37°35' E 121°23'0 0.0
2018-Feb-16 00:30N 37°35' E 121°23'0 0.0
2018-Feb-16 00:00N 37°35' E 121°23'0 0.0
2018-Feb-15 23:30N 37°35' E 121°23'0 0.0
2018-Feb-15 23:00N 37°35' E 121°23'0 0.0
2018-Feb-15 22:30N 37°35' E 121°23'0 0.0
2018-Feb-15 22:00N 37°35' E 121°23'0 0.0
2018-Feb-15 21:30N 37°35' E 121°23'0 0.0
2018-Feb-15 20:57N 37°35' E 121°23'0 0.0
2018-Feb-15 20:30N 37°35' E 121°23'0 0.0
2018-Feb-15 19:57N 37°35' E 121°23'0 0.0
2018-Feb-15 19:30N 37°35' E 121°23'0 0.0
2018-Feb-15 19:00N 37°35' E 121°23'0 0.0
2018-Feb-15 18:30N 37°35' E 121°23'0 0.0
2018-Feb-15 18:00N 37°35' E 121°23'0 0.0
2018-Feb-15 17:30N 37°35' E 121°23'0 0.0
2018-Feb-15 17:00N 37°35' E 121°23'0 0.0
2018-Feb-15 16:30N 37°35' E 121°23'0 0.0
2018-Feb-15 16:00N 37°35' E 121°23'0 0.0
2018-Feb-15 15:27N 37°35' E 121°23'0 0.0
2018-Feb-15 15:00N 37°35' E 121°23'0 0.0
2018-Feb-15 14:27N 37°35' E 121°23'0 0.0
2018-Feb-15 13:57N 37°35' E 121°23'0 0.0
2018-Feb-15 13:30N 37°35' E 121°23'0 0.0
2018-Feb-15 13:00N 37°35' E 121°23'0 0.0
2018-Feb-15 12:30N 37°35' E 121°23'0 0.0
2018-Feb-15 12:00N 37°35' E 121°23'0 0.0
2018-Feb-15 11:30N 37°35' E 121°23'0 0.0
2018-Feb-15 11:00N 37°35' E 121°23'0 0.0
2018-Feb-15 10:30N 37°35' E 121°23'0 0.0
2018-Feb-15 10:00N 37°35' E 121°23'0 0.0
2018-Feb-15 09:30N 37°35' E 121°23'0 0.0
2018-Feb-15 08:57N 37°35' E 121°23'0 0.0
2018-Feb-15 08:30N 37°35' E 121°23'0 0.0
2018-Feb-15 08:00N 37°35' E 121°23'0 0.0
2018-Feb-15 07:30N 37°35' E 121°23'0 0.0
2018-Feb-15 06:57N 37°35' E 121°23'0 0.0
2018-Feb-15 06:18N 37°35' E 121°23'0 0.0
2018-Feb-15 05:57N 37°35' E 121°23'0 0.0
2018-Feb-15 05:30N 37°35' E 121°23'0 0.0
2018-Feb-15 05:00N 37°35' E 121°23'0 0.0
2018-Feb-15 04:30N 37°35' E 121°23'0 0.0
2018-Feb-15 04:00N 37°35' E 121°23'0 0.0
2018-Feb-15 03:30N 37°35' E 121°23'0 0.0
2018-Feb-15 02:57N 37°35' E 121°23'0 0.2
2018-Feb-15 02:30N 37°35' E 121°23'1 2.6
2018-Feb-15 02:00N 37°35' E 121°25'4 7.1
2018-Feb-15 01:30N 37°37' E 121°28'3 4.7
2018-Feb-15 00:56N 37°39' E 121°30'0 0.2
2018-Feb-15 00:29N 37°39' E 121°30'0 0.0
2018-Feb-14 23:59N 37°39' E 121°30'0 0.1
2018-Feb-14 23:29N 37°39' E 121°30'0 0.0
2018-Feb-14 22:59N 37°39' E 121°30'0 0.0
2018-Feb-14 22:29N 37°39' E 121°30'0 0.0
2018-Feb-14 21:56N 37°39' E 121°30'0 0.0
2018-Feb-14 21:29N 37°39' E 121°30'0 0.0
2018-Feb-14 20:59N 37°39' E 121°30'0 0.0
2018-Feb-14 20:29N 37°39' E 121°30'0 0.0
2018-Feb-14 19:59N 37°39' E 121°30'0 0.0
2018-Feb-14 19:26N 37°39' E 121°30'0 0.0
2018-Feb-14 18:59N 37°39' E 121°30'0 0.0
2018-Feb-14 18:26N 37°39' E 121°30'0 0.0
2018-Feb-14 17:59N 37°39' E 121°30'0 0.0
2018-Feb-14 17:26N 37°39' E 121°30'0 0.0
2018-Feb-14 16:59N 37°39' E 121°30'0 0.0
2018-Feb-14 16:26N 37°39' E 121°30'0 0.1
2018-Feb-14 15:56N 37°39' E 121°30'0 0.0
2018-Feb-14 15:29N 37°39' E 121°30'0 0.1
2018-Feb-14 14:56N 37°39' E 121°30'0 0.1
2018-Feb-14 14:29N 37°39' E 121°30'0 0.0
2018-Feb-14 13:59N 37°39' E 121°30'0 0.0
2018-Feb-14 13:26N 37°39' E 121°30'0 0.0
2018-Feb-14 12:59N 37°39' E 121°30'0 0.0
2018-Feb-14 12:26N 37°39' E 121°30'0 0.0
2018-Feb-14 11:59N 37°39' E 121°30'0 0.1
2018-Feb-14 11:29N 37°39' E 121°30'0 0.1
2018-Feb-14 10:59N 37°39' E 121°30'0 0.1
2018-Feb-14 10:29N 37°39' E 121°30'0 0.0
2018-Feb-14 09:59N 37°39' E 121°30'0 0.0
2018-Feb-14 09:29N 37°39' E 121°30'0 0.0
2018-Feb-14 08:59N 37°39' E 121°30'0 0.0
2018-Feb-14 08:29N 37°39' E 121°30'0 0.0
2018-Feb-14 07:59N 37°39' E 121°30'0 0.0
2018-Feb-14 07:23N 37°39' E 121°30'0 0.0
2018-Feb-14 06:59N 37°39' E 121°30'0 0.0
2018-Feb-14 06:29N 37°39' E 121°30'0 0.0
2018-Feb-14 05:59N 37°39' E 121°30'0 0.0
2018-Feb-14 05:29N 37°39' E 121°30'0 0.0
2018-Feb-14 04:59N 37°39' E 121°30'0 0.0
2018-Feb-14 04:29N 37°39' E 121°30'0 0.0
2018-Feb-14 03:59N 37°39' E 121°30'1 1.3
2018-Feb-14 03:30N 37°39' E 121°31'4 7.8
2018-Feb-14 03:00N 37°40' E 121°36'611.9
2018-Feb-14 02:30N 37°42' E 121°43'612.2
2018-Feb-14 02:00N 37°44' E 121°50'123 6.7
2018-Feb-13 07:37N 35°59' E 120°31'312.4
2018-Feb-13 07:23N 35°59' E 120°28'8 9.8
2018-Feb-13 06:36N 36°01' E 120°18'4 7.7
2018-Feb-13 06:07N 36°05' E 120°17'2 2.1
2018-Feb-13 05:12N 36°06' E 120°19'0 0.0
2018-Feb-13 04:52N 36°06' E 120°19'0 0.0
2018-Feb-13 03:52N 36°06' E 120°19'0 0.0
2018-Feb-13 03:09N 36°06' E 120°19'0 0.0
2018-Feb-12 09:03N 36°06' E 120°19'0 0.0
2018-Feb-12 08:45N 36°06' E 120°19'0 0.0
2018-Feb-12 02:40N 36°06' E 120°19'0 0.0
2018-Feb-12 02:25N 36°06' E 120°19'0 0.0
2018-Feb-12 01:21N 36°06' E 120°19'0 0.0
2018-Feb-12 00:06N 36°06' E 120°19'  
Track history (hours):
 
Tides and Currents Weather Stations Pressure Air Temp Water Temp Dewpoint Dewpoint Depression Visibility Wind Speed Wind Dir Waves Ship Positions

Isuzu

Last reported at 2018-Feb-22 00:00 UTC. Time now 2018-Feb-22 05:20 UTC.
Position N 34°28' E 139°46'.

Length 145 m; draft 6.7 m.

Type: Cargo ship. MMSI: 371884000.

Date/timePositionNaut miles runAvg speedWind from/ knotsBaromVisibWave heightAir tempDewpointWater temp
2018-Feb-22 00:00N 34°28' E 139°46'2 2.4
2018-Feb-21 23:12N 34°29' E 139°47'1 2.7
2018-Feb-21 23:00N 34°30' E 139°48'2 2.2
2018-Feb-21 21:54N 34°31' E 139°50'1 2.1
2018-Feb-21 21:24N 34°32' E 139°51'0 0.7
2018-Feb-21 20:54N 34°32' E 139°52'1 0.3
2018-Feb-21 17:30N 34°32' E 139°50'0 0.7
2018-Feb-21 16:57N 34°32' E 139°50'3 0.6
2018-Feb-21 12:39N 34°30' E 139°52'0 0.8
2018-Feb-21 12:30N 34°30' E 139°52'2 0.8
2018-Feb-21 10:14N 34°28' E 139°52'1410.3
2018-Feb-21 08:53N 34°25' E 139°35'0 0.2
2018-Feb-21 07:05N 34°24' E 139°35'0 1.2
2018-Feb-21 06:53N 34°24' E 139°36'3 1.0
2018-Feb-21 04:01N 34°25' E 139°39'3 5.3
2018-Feb-21 03:32N 34°24' E 139°37'1 9.3
2018-Feb-21 03:28N 34°23' E 139°36'510.2
2018-Feb-21 02:59N 34°20' E 139°32'  
2018-Feb-17 05:22N 37°40' E 122°10'513.4
2018-Feb-17 05:00N 37°41' E 122°05'713.3
2018-Feb-17 04:30N 37°43' E 121°56'713.1
2018-Feb-17 04:00N 37°44' E 121°48'612.8
2018-Feb-17 03:30N 37°43' E 121°40'611.3
2018-Feb-17 03:00N 37°39' E 121°35'611.2
2018-Feb-17 02:30N 37°37' E 121°28'4 8.3
2018-Feb-17 02:00N 37°35' E 121°24'0 0.8
2018-Feb-17 01:30N 37°35' E 121°23'0 0.0
2018-Feb-17 01:00N 37°35' E 121°23'0 0.0
2018-Feb-17 00:30N 37°35' E 121°23'0 0.0
2018-Feb-17 00:00N 37°35' E 121°23'0 0.0
2018-Feb-16 23:30N 37°35' E 121°23'0 0.0
2018-Feb-16 23:00N 37°35' E 121°23'0 0.0
2018-Feb-16 22:30N 37°35' E 121°23'0 0.0
2018-Feb-16 22:00N 37°35' E 121°23'0 0.0
2018-Feb-16 21:30N 37°35' E 121°23'0 0.0
2018-Feb-16 21:00N 37°35' E 121°23'0 0.0
2018-Feb-16 20:27N 37°35' E 121°23'0 0.0
2018-Feb-16 20:00N 37°35' E 121°23'0 0.0
2018-Feb-16 19:30N 37°35' E 121°23'0 0.0
2018-Feb-16 18:57N 37°35' E 121°23'0 0.0
2018-Feb-16 18:30N 37°35' E 121°23'0 0.0
2018-Feb-16 18:00N 37°35' E 121°23'0 0.0
2018-Feb-16 17:30N 37°35' E 121°23'0 0.0
2018-Feb-16 16:57N 37°35' E 121°23'0 0.0
2018-Feb-16 16:21N 37°35' E 121°23'0 0.0
2018-Feb-16 15:57N 37°35' E 121°23'0 0.0
2018-Feb-16 15:30N 37°35' E 121°23'0 0.0
2018-Feb-16 15:00N 37°35' E 121°23'0 0.0
2018-Feb-16 14:30N 37°35' E 121°23'0 0.0
2018-Feb-16 14:00N 37°35' E 121°23'0 0.0
2018-Feb-16 13:30N 37°35' E 121°23'0 0.0
2018-Feb-16 13:00N 37°35' E 121°23'0 0.1
2018-Feb-16 12:30N 37°35' E 121°23'0 0.1
2018-Feb-16 12:00N 37°35' E 121°23'0 0.0
2018-Feb-16 11:30N 37°35' E 121°23'0 0.0
2018-Feb-16 11:00N 37°35' E 121°23'0 0.0
2018-Feb-16 10:27N 37°35' E 121°23'0 0.0
2018-Feb-16 09:57N 37°35' E 121°23'0 0.1
2018-Feb-16 09:27N 37°35' E 121°23'0 0.1
2018-Feb-16 09:00N 37°35' E 121°23'0 0.0
2018-Feb-16 08:27N 37°35' E 121°23'0 0.0
2018-Feb-16 08:00N 37°35' E 121°23'0 0.0
2018-Feb-16 07:27N 37°35' E 121°23'0 0.0
2018-Feb-16 07:00N 37°35' E 121°23'0 0.0
2018-Feb-16 06:30N 37°35' E 121°23'0 0.0
2018-Feb-16 06:00N 37°35' E 121°23'0 0.0
2018-Feb-16 05:30N 37°35' E 121°23'0 0.0
2018-Feb-16 04:54N 37°35' E 121°23'0 0.0
2018-Feb-16 04:30N 37°35' E 121°23'0 0.0
2018-Feb-16 03:57N 37°35' E 121°23'0 0.0
2018-Feb-16 03:27N 37°35' E 121°23'0 0.0
2018-Feb-16 02:57N 37°35' E 121°23'0 0.0
2018-Feb-16 02:30N 37°35' E 121°23'0 0.0
2018-Feb-16 02:00N 37°35' E 121°23'0 0.0
2018-Feb-16 01:27N 37°35' E 121°23'0 0.0
2018-Feb-16 01:00N 37°35' E 121°23'0 0.0
2018-Feb-16 00:30N 37°35' E 121°23'0 0.0
2018-Feb-16 00:00N 37°35' E 121°23'0 0.0
2018-Feb-15 23:30N 37°35' E 121°23'0 0.0
2018-Feb-15 23:00N 37°35' E 121°23'0 0.0
2018-Feb-15 22:30N 37°35' E 121°23'0 0.0
2018-Feb-15 22:00N 37°35' E 121°23'0 0.0
2018-Feb-15 21:30N 37°35' E 121°23'0 0.0
2018-Feb-15 20:57N 37°35' E 121°23'0 0.0
2018-Feb-15 20:30N 37°35' E 121°23'0 0.0
2018-Feb-15 19:57N 37°35' E 121°23'0 0.0
2018-Feb-15 19:30N 37°35' E 121°23'0 0.0
2018-Feb-15 19:00N 37°35' E 121°23'0 0.0
2018-Feb-15 18:30N 37°35' E 121°23'0 0.0
2018-Feb-15 18:00N 37°35' E 121°23'0 0.0
2018-Feb-15 17:30N 37°35' E 121°23'0 0.0
2018-Feb-15 17:00N 37°35' E 121°23'0 0.0
2018-Feb-15 16:30N 37°35' E 121°23'0 0.0
2018-Feb-15 16:00N 37°35' E 121°23'0 0.0
2018-Feb-15 15:27N 37°35' E 121°23'0 0.0
2018-Feb-15 15:00N 37°35' E 121°23'0 0.0
2018-Feb-15 14:27N 37°35' E 121°23'0 0.0
2018-Feb-15 13:57N 37°35' E 121°23'0 0.0
2018-Feb-15 13:30N 37°35' E 121°23'0 0.0
2018-Feb-15 13:00N 37°35' E 121°23'0 0.0
2018-Feb-15 12:30N 37°35' E 121°23'0 0.0
2018-Feb-15 12:00N 37°35' E 121°23'0 0.0
2018-Feb-15 11:30N 37°35' E 121°23'0 0.0
2018-Feb-15 11:00N 37°35' E 121°23'0 0.0
2018-Feb-15 10:30N 37°35' E 121°23'0 0.0
2018-Feb-15 10:00N 37°35' E 121°23'0 0.0
2018-Feb-15 09:30N 37°35' E 121°23'0 0.0
2018-Feb-15 08:57N 37°35' E 121°23'0 0.0
2018-Feb-15 08:30N 37°35' E 121°23'0 0.0
2018-Feb-15 08:00N 37°35' E 121°23'0 0.0
2018-Feb-15 07:30N 37°35' E 121°23'0 0.0
2018-Feb-15 06:57N 37°35' E 121°23'0 0.0
2018-Feb-15 06:18N 37°35' E 121°23'0 0.0
2018-Feb-15 05:57N 37°35' E 121°23'0 0.0
2018-Feb-15 05:30N 37°35' E 121°23'0 0.0
2018-Feb-15 05:00N 37°35' E 121°23'0 0.0
2018-Feb-15 04:30N 37°35' E 121°23'0 0.0
2018-Feb-15 04:00N 37°35' E 121°23'0 0.0
2018-Feb-15 03:30N 37°35' E 121°23'0 0.0
2018-Feb-15 02:57N 37°35' E 121°23'0 0.2
2018-Feb-15 02:30N 37°35' E 121°23'1 2.6
2018-Feb-15 02:00N 37°35' E 121°25'4 7.1
2018-Feb-15 01:30N 37°37' E 121°28'3 4.7
2018-Feb-15 00:56N 37°39' E 121°30'0 0.2
2018-Feb-15 00:29N 37°39' E 121°30'0 0.0
2018-Feb-14 23:59N 37°39' E 121°30'0 0.1
2018-Feb-14 23:29N 37°39' E 121°30'0 0.0
2018-Feb-14 22:59N 37°39' E 121°30'0 0.0
2018-Feb-14 22:29N 37°39' E 121°30'0 0.0
2018-Feb-14 21:56N 37°39' E 121°30'0 0.0
2018-Feb-14 21:29N 37°39' E 121°30'0 0.0
2018-Feb-14 20:59N 37°39' E 121°30'0 0.0
2018-Feb-14 20:29N 37°39' E 121°30'0 0.0
2018-Feb-14 19:59N 37°39' E 121°30'0 0.0
2018-Feb-14 19:26N 37°39' E 121°30'0 0.0
2018-Feb-14 18:59N 37°39' E 121°30'0 0.0
2018-Feb-14 18:26N 37°39' E 121°30'0 0.0
2018-Feb-14 17:59N 37°39' E 121°30'0 0.0
2018-Feb-14 17:26N 37°39' E 121°30'0 0.0
2018-Feb-14 16:59N 37°39' E 121°30'0 0.0
2018-Feb-14 16:26N 37°39' E 121°30'0 0.1
2018-Feb-14 15:56N 37°39' E 121°30'0 0.0
2018-Feb-14 15:29N 37°39' E 121°30'0 0.1
2018-Feb-14 14:56N 37°39' E 121°30'0 0.1
2018-Feb-14 14:29N 37°39' E 121°30'0 0.0
2018-Feb-14 13:59N 37°39' E 121°30'0 0.0
2018-Feb-14 13:26N 37°39' E 121°30'0 0.0
2018-Feb-14 12:59N 37°39' E 121°30'0 0.0
2018-Feb-14 12:26N 37°39' E 121°30'0 0.0
2018-Feb-14 11:59N 37°39' E 121°30'0 0.1
2018-Feb-14 11:29N 37°39' E 121°30'0 0.1
2018-Feb-14 10:59N 37°39' E 121°30'0 0.1
2018-Feb-14 10:29N 37°39' E 121°30'0 0.0
2018-Feb-14 09:59N 37°39' E 121°30'0 0.0
2018-Feb-14 09:29N 37°39' E 121°30'0 0.0
2018-Feb-14 08:59N 37°39' E 121°30'0 0.0
2018-Feb-14 08:29N 37°39' E 121°30'0 0.0
2018-Feb-14 07:59N 37°39' E 121°30'0 0.0
2018-Feb-14 07:23N 37°39' E 121°30'0 0.0
2018-Feb-14 06:59N 37°39' E 121°30'0 0.0
2018-Feb-14 06:29N 37°39' E 121°30'0 0.0
2018-Feb-14 05:59N 37°39' E 121°30'0 0.0
2018-Feb-14 05:29N 37°39' E 121°30'0 0.0
2018-Feb-14 04:59N 37°39' E 121°30'0 0.0
2018-Feb-14 04:29N 37°39' E 121°30'0 0.0
2018-Feb-14 03:59N 37°39' E 121°30'1 1.3
2018-Feb-14 03:30N 37°39' E 121°31'4 7.8
2018-Feb-14 03:00N 37°40' E 121°36'611.9
2018-Feb-14 02:30N 37°42' E 121°43'612.2
2018-Feb-14 02:00N 37°44' E 121°50'123 6.7
2018-Feb-13 07:37N 35°59' E 120°31'312.4
2018-Feb-13 07:23N 35°59' E 120°28'8 9.8
2018-Feb-13 06:36N 36°01' E 120°18'4 7.7
2018-Feb-13 06:07N 36°05' E 120°17'2 2.1
2018-Feb-13 05:12N 36°06' E 120°19'0 0.0
2018-Feb-13 04:52N 36°06' E 120°19'0 0.0
2018-Feb-13 03:52N 36°06' E 120°19'0 0.0
2018-Feb-13 03:09N 36°06' E 120°19'0 0.0
2018-Feb-12 09:03N 36°06' E 120°19'0 0.0
2018-Feb-12 08:45N 36°06' E 120°19'0 0.0
2018-Feb-12 02:40N 36°06' E 120°19'0 0.0
2018-Feb-12 02:25N 36°06' E 120°19'0 0.0
2018-Feb-12 01:21N 36°06' E 120°19'0 0.0
2018-Feb-12 00:06N 36°06' E 120°19'  

Dump ship's entire track history